Flight Track Log - Related Links

Times and Time Zones

All times are in EDT time to prevent confusion due to time zone crossing. See the EJA831 flight status page for this flight to view local times or setup timezone preferences in your user account.

Time Position Orientation Groundspeed Altitude Reporting Facility
EDT Latitude Longitude Course Direction KTS MPH feet Rate Location/Type
Sat 04:08:06 PM 39.9333 -75.8500 165° South 261 300 4,000  Level Philadelphia TRACON
Sat 04:09:00 PM 39.9500 -75.7667 75° East 249 287 4,000  Level Philadelphia TRACON
Sat 04:10:00 PM 39.9667 -75.6833 75° East 251 289 4,000  Level Philadelphia TRACON
Sat 04:10:54 PM 40.0167 -75.6333 37° Northeast 244 281 4,000  Level Philadelphia TRACON
Sat 04:11:54 PM 40.0833 -75.6167 11° North 253 291 4,000  Level Philadelphia TRACON
Sat 04:12:54 PM 40.1500 -75.5833 21° North 265 305 4,000  Level Philadelphia TRACON
Sat 04:13:54 PM 40.2333 -75.5667 North 258 297 4,000 95 Level Philadelphia TRACON
Sat 04:15:00 PM 40.2846 -75.5513 13° North  Level FlightAware Approximate
Sat 04:22:00 PM 40.6143 -75.4716 North  Level FlightAware Approximate
Sat 04:23:00 PM 40.6615 -75.4617 North  Level FlightAware Approximate
Sat 04:24:00 PM 40.7087 -75.4517 North  Level FlightAware Approximate
Sat 04:24:29 PM 40.8500 -75.0833 42° Northeast 259 298 5,100  Level New York TRACON
Sat 04:25:00 PM 40.7447 -75.4127 45° Northeast  Level FlightAware Approximate
Sat 04:25:29 PM 40.9000 -75.0167 45° Northeast 266 306 5,100  Level New York TRACON
Sat 04:26:00 PM 40.7783 -75.3679 45° Northeast  Level FlightAware Approximate
Sat 04:26:35 PM 40.9333 -74.9167 66° East 258 297 4,300  Level New York TRACON
Sat 04:27:00 PM 40.8119 -75.3230 45° Northeast  Level FlightAware Approximate
Sat 04:27:29 PM 40.9500 -74.8333 75° East 251 289 4,100  Level New York TRACON
Sat 04:28:00 PM 40.8471 -75.2802 42° Northeast  Level FlightAware Approximate
Sat 04:28:29 PM 40.9833 -74.7500 62° Northeast 241 277 4,100  Level New York TRACON
Sat 04:29:00 PM 40.8826 -75.2378 42° Northeast  Level FlightAware Approximate
Sat 04:29:35 PM 41.0167 -74.6667 62° Northeast 251 289 4,100  Level New York TRACON
Sat 04:30:35 PM 41.0333 -74.5833 75° East 253 291 4,100  Level New York TRACON
Sat 04:31:29 PM 41.0500 -74.5000 75° East 251 289 4,100  Level New York TRACON
Sat 04:32:35 PM 41.0833 -74.4000 66° East 252 290 4,100  Level New York TRACON
Sat 04:33:29 PM 41.1000 -74.3333 72° East 227 261 4,100 -500 Level New York TRACON
Sat 04:34:35 PM 41.1333 -74.2500 62° Northeast 199 229 3,100 -500 Descending New York TRACON
Sat 04:35:29 PM 41.1500 -74.1833 72° East 233 268 3,100  Level New York TRACON
Sat 04:36:35 PM 41.1500 -74.1000 90° East 242 278 3,100  Level New York TRACON
Sat 04:37:29 PM 41.1167 -74.0333 124° Southeast 249 287 3,100  Level New York TRACON
Sat 04:38:35 PM 41.0667 -73.9667 135° Southeast 195 224 3,100  Level New York TRACON
Sat 04:39:30 PM 41.0500 -73.9167 114° Southeast 186 214 3,100 -261 Level New York TRACON
Sat 04:40:30 PM 41.0167 -73.8500 124° Southeast 191 220 2,600 -500 Descending New York TRACON
Sat 04:41:30 PM 41.0000 -73.8000 114° Southeast 181 208 2,100 -288 Descending New York TRACON
Sat 04:42:35 PM 41.0167 -73.7167 75° East 175 201 2,000 -550 Descending New York TRACON
Sat 04:43:30 PM 41.0333 -73.6833 56° Northeast 141 162 1,000 -1,091 Descending New York TRACON
Sat 04:45:00 PM 41.0669 -73.7076 236° Southwest  Level Estimated
Sat 04:52:00 PM 41.0667 -73.7000 255° West  Level FlightAware Approximate
Sat 04:53:00 PM 41.0669 -73.7076 255° West  Level Estimated

Login

Don't have an account? Register now (free) for customized features, flight alerts, and more!